Greenview, South Carolina
Current Conditions -  °F | °C
As of 6:53 PM on Wednesday 22 Oct 2014 (Local Time) from KCUB Reporting Station
Clear Clear  
Wind Chill: 61°   Ceiling: Unl
Heat Index: 61°   Visibility: 10mi
Dew Point: 44°   Wind: 0mph
Humidity: 54%   Direction: NA
Pressure: 30.04"   Gusts: NA
Location:  34.1179°N, 81.0612°W
Report Text: KCUB 222253Z AUTO 00000KT 10SM CLR 16/07 A3004 RMK AO2 SLP173 T01610067
Loading
Personal Weather Stations






























Interactive Weather Map
Tropical Storm Tracking
New forecast layout! Learn more

10-Day Weather Forecast

Advertisements
Track Severe Weather on mobile